sensor_id;sensor_type;location;lat;lon;timestamp;temperature;humidity
47861;HTU21D;33620;52.340;5.984;2022-12-07T00:00:52;4.50;94.90
47861;HTU21D;33620;52.340;5.984;2022-12-07T00:03:18;4.51;94.92
47861;HTU21D;33620;52.340;5.984;2022-12-07T00:05:43;4.52;94.91
47861;HTU21D;33620;52.340;5.984;2022-12-07T00:08:09;4.52;94.70
47861;HTU21D;33620;52.340;5.984;2022-12-07T00:10:34;4.52;94.76
47861;HTU21D;33620;52.340;5.984;2022-12-07T00:13:00;4.54;94.75
47861;HTU21D;33620;52.340;5.984;2022-12-07T00:15:25;4.56;94.54
47861;HTU21D;33620;52.340;5.984;2022-12-07T00:17:50;4.53;94.40
47861;HTU21D;33620;52.340;5.984;2022-12-07T00:20:16;4.53;94.46
47861;HTU21D;33620;52.340;5.984;2022-12-07T00:22:41;4.53;94.34
47861;HTU21D;33620;52.340;5.984;2022-12-07T00:25:07;4.50;94.30
47861;HTU21D;33620;52.340;5.984;2022-12-07T00:27:32;4.48;94.21
47861;HTU21D;33620;52.340;5.984;2022-12-07T00:29:57;4.47;94.36
47861;HTU21D;33620;52.340;5.984;2022-12-07T00:32:23;4.47;94.27
47861;HTU21D;33620;52.340;5.984;2022-12-07T00:34:48;4.45;94.10
47861;HTU21D;33620;52.340;5.984;2022-12-07T00:37:13;4.43;94.02
47861;HTU21D;33620;52.340;5.984;2022-12-07T00:39:39;4.39;94.05
47861;HTU21D;33620;52.340;5.984;2022-12-07T00:42:04;4.37;94.02
47861;HTU21D;33620;52.340;5.984;2022-12-07T00:44:29;4.33;93.88
47861;HTU21D;33620;52.340;5.984;2022-12-07T00:46:55;4.30;94.01
47861;HTU21D;33620;52.340;5.984;2022-12-07T00:49:21;4.29;93.95
47861;HTU21D;33620;52.340;5.984;2022-12-07T00:51:48;4.24;93.95
47861;HTU21D;33620;52.340;5.984;2022-12-07T00:54:13;4.24;94.01
47861;HTU21D;33620;52.340;5.984;2022-12-07T00:56:38;4.22;94.12
47861;HTU21D;33620;52.340;5.984;2022-12-07T00:59:04;4.23;93.99
47861;HTU21D;33620;52.340;5.984;2022-12-07T01:01:35;4.24;94.00
47861;HTU21D;33620;52.340;5.984;2022-12-07T01:04:01;4.22;93.91
47861;HTU21D;33620;52.340;5.984;2022-12-07T01:06:26;4.22;93.93
47861;HTU21D;33620;52.340;5.984;2022-12-07T01:08:52;4.23;93.98
47861;HTU21D;33620;52.340;5.984;2022-12-07T01:11:21;4.26;93.87
47861;HTU21D;33620;52.340;5.984;2022-12-07T01:13:48;4.29;93.78
47861;HTU21D;33620;52.340;5.984;2022-12-07T01:16:15;4.30;93.56
47861;HTU21D;33620;52.340;5.984;2022-12-07T01:18:42;4.27;93.21
47861;HTU21D;33620;52.340;5.984;2022-12-07T01:21:12;4.24;93.22
47861;HTU21D;33620;52.340;5.984;2022-12-07T01:23:38;4.22;93.34
47861;HTU21D;33620;52.340;5.984;2022-12-07T01:26:06;4.23;93.44
47861;HTU21D;33620;52.340;5.984;2022-12-07T01:28:32;4.24;93.43
47861;HTU21D;33620;52.340;5.984;2022-12-07T01:33:31;4.27;93.39
47861;HTU21D;33620;52.340;5.984;2022-12-07T01:36:07;4.29;93.21
47861;HTU21D;33620;52.340;5.984;2022-12-07T01:38:33;4.29;93.16
47861;HTU21D;33620;52.340;5.984;2022-12-07T01:41:00;4.29;93.11
47861;HTU21D;33620;52.340;5.984;2022-12-07T01:43:27;4.29;92.96
47861;HTU21D;33620;52.340;5.984;2022-12-07T01:45:54;4.29;93.06
47861;HTU21D;33620;52.340;5.984;2022-12-07T01:48:25;4.28;93.01
47861;HTU21D;33620;52.340;5.984;2022-12-07T01:50:52;4.28;93.03
47861;HTU21D;33620;52.340;5.984;2022-12-07T01:53:21;4.27;92.99
47861;HTU21D;33620;52.340;5.984;2022-12-07T01:55:49;4.27;93.01
47861;HTU21D;33620;52.340;5.984;2022-12-07T01:58:17;4.26;93.16
47861;HTU21D;33620;52.340;5.984;2022-12-07T02:00:42;4.28;93.02
47861;HTU21D;33620;52.340;5.984;2022-12-07T02:03:32;4.24;93.00
47861;HTU21D;33620;52.340;5.984;2022-12-07T02:05:59;4.28;92.96
47861;HTU21D;33620;52.340;5.984;2022-12-07T02:08:25;4.27;92.83
47861;HTU21D;33620;52.340;5.984;2022-12-07T02:10:50;4.27;92.82
47861;HTU21D;33620;52.340;5.984;2022-12-07T02:13:20;4.27;92.71
47861;HTU21D;33620;52.340;5.984;2022-12-07T02:27:29;4.27;92.58
47861;HTU21D;33620;52.340;5.984;2022-12-07T02:29:38;4.28;92.48
47861;HTU21D;33620;52.340;5.984;2022-12-07T02:32:17;4.26;92.48
47861;HTU21D;33620;52.340;5.984;2022-12-07T02:37:38;4.27;92.32
47861;HTU21D;33620;52.340;5.984;2022-12-07T02:43:08;4.30;92.43
47861;HTU21D;33620;52.340;5.984;2022-12-07T02:45:37;4.30;92.39
47861;HTU21D;33620;52.340;5.984;2022-12-07T02:48:05;4.28;92.52
47861;HTU21D;33620;52.340;5.984;2022-12-07T02:50:32;4.29;92.77
47861;HTU21D;33620;52.340;5.984;2022-12-07T02:52:57;4.33;92.76
47861;HTU21D;33620;52.340;5.984;2022-12-07T02:55:28;4.36;92.56
47861;HTU21D;33620;52.340;5.984;2022-12-07T03:01:03;4.34;92.29
47861;HTU21D;33620;52.340;5.984;2022-12-07T03:03:30;4.31;92.30
47861;HTU21D;33620;52.340;5.984;2022-12-07T03:06:10;4.32;92.30
47861;HTU21D;33620;52.340;5.984;2022-12-07T03:08:56;4.32;92.44
47861;HTU21D;33620;52.340;5.984;2022-12-07T03:11:30;4.32;92.63
47861;HTU21D;33620;52.340;5.984;2022-12-07T03:14:09;4.31;92.70
47861;HTU21D;33620;52.340;5.984;2022-12-07T03:16:55;4.29;92.83
47861;HTU21D;33620;52.340;5.984;2022-12-07T03:19:24;4.29;92.93
47861;HTU21D;33620;52.340;5.984;2022-12-07T03:21:58;4.29;93.07
47861;HTU21D;33620;52.340;5.984;2022-12-07T03:24:27;4.28;93.18
47861;HTU21D;33620;52.340;5.984;2022-12-07T03:27:01;4.28;93.25
47861;HTU21D;33620;52.340;5.984;2022-12-07T03:29:30;4.28;93.27
47861;HTU21D;33620;52.340;5.984;2022-12-07T03:37:45;4.28;93.45
47861;HTU21D;33620;52.340;5.984;2022-12-07T03:40:36;4.30;93.49
47861;HTU21D;33620;52.340;5.984;2022-12-07T03:43:03;4.32;93.49
47861;HTU21D;33620;52.340;5.984;2022-12-07T03:45:41;4.32;93.29
47861;HTU21D;33620;52.340;5.984;2022-12-07T03:48:35;4.30;93.16
47861;HTU21D;33620;52.340;5.984;2022-12-07T03:51:21;4.32;93.24
47861;HTU21D;33620;52.340;5.984;2022-12-07T03:54:28;4.34;93.24
47861;HTU21D;33620;52.340;5.984;2022-12-07T03:56:55;4.39;93.20
47861;HTU21D;33620;52.340;5.984;2022-12-07T03:59:22;4.44;93.19
47861;HTU21D;33620;52.340;5.984;2022-12-07T04:02:06;4.49;93.18
47861;HTU21D;33620;52.340;5.984;2022-12-07T04:04:32;4.50;92.92
47861;HTU21D;33620;52.340;5.984;2022-12-07T04:06:58;4.50;92.67
47861;HTU21D;33620;52.340;5.984;2022-12-07T04:09:23;4.45;92.53
47861;HTU21D;33620;52.340;5.984;2022-12-07T04:11:49;4.42;92.43
47861;HTU21D;33620;52.340;5.984;2022-12-07T04:14:14;4.35;92.43
47861;HTU21D;33620;52.340;5.984;2022-12-07T04:16:54;4.30;92.27
47861;HTU21D;33620;52.340;5.984;2022-12-07T04:19:28;4.20;92.01
47861;HTU21D;33620;52.340;5.984;2022-12-07T04:21:54;4.12;92.18
47861;HTU21D;33620;52.340;5.984;2022-12-07T04:24:20;4.06;92.34
47861;HTU21D;33620;52.340;5.984;2022-12-07T04:26:46;4.01;92.42
47861;HTU21D;33620;52.340;5.984;2022-12-07T04:29:12;3.99;92.47
47861;HTU21D;33620;52.340;5.984;2022-12-07T04:31:38;3.95;92.56
47861;HTU21D;33620;52.340;5.984;2022-12-07T04:34:04;3.92;92.55
47861;HTU21D;33620;52.340;5.984;2022-12-07T04:36:30;3.91;92.74
47861;HTU21D;33620;52.340;5.984;2022-12-07T04:38:56;3.89;92.72
47861;HTU21D;33620;52.340;5.984;2022-12-07T04:41:23;3.86;92.76
47861;HTU21D;33620;52.340;5.984;2022-12-07T04:43:59;3.84;92.79
47861;HTU21D;33620;52.340;5.984;2022-12-07T04:46:26;3.82;92.74
47861;HTU21D;33620;52.340;5.984;2022-12-07T04:48:52;3.79;92.81
47861;HTU21D;33620;52.340;5.984;2022-12-07T04:51:28;3.74;92.79
47861;HTU21D;33620;52.340;5.984;2022-12-07T04:53:54;3.74;93.04
47861;HTU21D;33620;52.340;5.984;2022-12-07T04:56:20;3.74;92.97
47861;HTU21D;33620;52.340;5.984;2022-12-07T04:58:47;3.79;93.25
47861;HTU21D;33620;52.340;5.984;2022-12-07T05:01:14;3.86;93.43
47861;HTU21D;33620;52.340;5.984;2022-12-07T05:03:40;3.88;93.12
47861;HTU21D;33620;52.340;5.984;2022-12-07T05:06:06;3.89;93.05
47861;HTU21D;33620;52.340;5.984;2022-12-07T05:08:33;3.88;93.22
47861;HTU21D;33620;52.340;5.984;2022-12-07T05:10:59;3.89;93.18
47861;HTU21D;33620;52.340;5.984;2022-12-07T05:13:25;3.90;93.21
47861;HTU21D;33620;52.340;5.984;2022-12-07T05:15:50;3.92;93.27
47861;HTU21D;33620;52.340;5.984;2022-12-07T05:18:16;3.93;93.30
47861;HTU21D;33620;52.340;5.984;2022-12-07T05:20:42;3.97;93.24
47861;HTU21D;33620;52.340;5.984;2022-12-07T05:23:07;3.98;93.17
47861;HTU21D;33620;52.340;5.984;2022-12-07T05:25:33;3.99;93.11
47861;HTU21D;33620;52.340;5.984;2022-12-07T05:27:58;4.01;93.24
47861;HTU21D;33620;52.340;5.984;2022-12-07T05:30:24;4.05;93.00
47861;HTU21D;33620;52.340;5.984;2022-12-07T05:32:50;4.04;92.88
47861;HTU21D;33620;52.340;5.984;2022-12-07T05:35:16;4.05;92.97
47861;HTU21D;33620;52.340;5.984;2022-12-07T05:37:42;4.05;92.84
47861;HTU21D;33620;52.340;5.984;2022-12-07T05:40:08;4.01;92.54
47861;HTU21D;33620;52.340;5.984;2022-12-07T05:42:33;3.97;92.49
47861;HTU21D;33620;52.340;5.984;2022-12-07T05:44:59;3.92;92.64
47861;HTU21D;33620;52.340;5.984;2022-12-07T05:47:24;3.88;92.74
47861;HTU21D;33620;52.340;5.984;2022-12-07T05:49:50;3.87;92.91
47861;HTU21D;33620;52.340;5.984;2022-12-07T05:52:15;3.84;93.05
47861;HTU21D;33620;52.340;5.984;2022-12-07T05:54:40;3.86;93.15
47861;HTU21D;33620;52.340;5.984;2022-12-07T05:57:06;3.86;93.19
47861;HTU21D;33620;52.340;5.984;2022-12-07T05:59:31;3.88;93.13
47861;HTU21D;33620;52.340;5.984;2022-12-07T06:01:59;3.88;92.98
47861;HTU21D;33620;52.340;5.984;2022-12-07T06:04:27;3.88;92.92
47861;HTU21D;33620;52.340;5.984;2022-12-07T06:06:53;3.89;92.70
47861;HTU21D;33620;52.340;5.984;2022-12-07T06:09:20;3.86;92.46
47861;HTU21D;33620;52.340;5.984;2022-12-07T06:11:45;3.85;92.46
47861;HTU21D;33620;52.340;5.984;2022-12-07T06:14:29;3.84;92.37
47861;HTU21D;33620;52.340;5.984;2022-12-07T06:16:55;3.82;92.30
47861;HTU21D;33620;52.340;5.984;2022-12-07T06:19:20;3.77;92.18
47861;HTU21D;33620;52.340;5.984;2022-12-07T06:21:45;3.74;92.30
47861;HTU21D;33620;52.340;5.984;2022-12-07T06:24:12;3.70;92.25
47861;HTU21D;33620;52.340;5.984;2022-12-07T06:26:38;3.67;92.46
47861;HTU21D;33620;52.340;5.984;2022-12-07T06:29:03;3.63;92.60
47861;HTU21D;33620;52.340;5.984;2022-12-07T06:31:29;3.60;92.75
47861;HTU21D;33620;52.340;5.984;2022-12-07T06:34:04;3.59;92.78
47861;HTU21D;33620;52.340;5.984;2022-12-07T06:36:30;3.59;92.69
47861;HTU21D;33620;52.340;5.984;2022-12-07T06:38:56;3.57;92.72
47861;HTU21D;33620;52.340;5.984;2022-12-07T06:41:22;3.55;92.73
47861;HTU21D;33620;52.340;5.984;2022-12-07T06:43:48;3.54;92.73
47861;HTU21D;33620;52.340;5.984;2022-12-07T06:46:14;3.55;92.81
47861;HTU21D;33620;52.340;5.984;2022-12-07T06:48:41;3.55;92.77
47861;HTU21D;33620;52.340;5.984;2022-12-07T06:51:07;3.56;92.74
47861;HTU21D;33620;52.340;5.984;2022-12-07T06:53:32;3.57;92.69
47861;HTU21D;33620;52.340;5.984;2022-12-07T06:55:57;3.57;92.50
47861;HTU21D;33620;52.340;5.984;2022-12-07T06:58:23;3.56;92.40
47861;HTU21D;33620;52.340;5.984;2022-12-07T07:00:49;3.55;92.21
47861;HTU21D;33620;52.340;5.984;2022-12-07T07:03:15;3.52;92.14
47861;HTU21D;33620;52.340;5.984;2022-12-07T07:05:41;3.48;92.11
47861;HTU21D;33620;52.340;5.984;2022-12-07T07:08:07;3.46;92.05
47861;HTU21D;33620;52.340;5.984;2022-12-07T07:10:32;3.44;92.00
47861;HTU21D;33620;52.340;5.984;2022-12-07T07:12:58;3.44;91.97
47861;HTU21D;33620;52.340;5.984;2022-12-07T07:15:23;3.42;91.85
47861;HTU21D;33620;52.340;5.984;2022-12-07T07:17:49;3.40;92.10
47861;HTU21D;33620;52.340;5.984;2022-12-07T07:20:14;3.43;92.23
47861;HTU21D;33620;52.340;5.984;2022-12-07T07:22:40;3.43;92.35
47861;HTU21D;33620;52.340;5.984;2022-12-07T07:25:05;3.47;92.34
47861;HTU21D;33620;52.340;5.984;2022-12-07T07:27:31;3.47;92.30
47861;HTU21D;33620;52.340;5.984;2022-12-07T07:29:56;3.47;92.21
47861;HTU21D;33620;52.340;5.984;2022-12-07T07:32:21;3.46;92.31
47861;HTU21D;33620;52.340;5.984;2022-12-07T07:34:47;3.44;92.57
47861;HTU21D;33620;52.340;5.984;2022-12-07T07:37:13;3.48;92.80
47861;HTU21D;33620;52.340;5.984;2022-12-07T07:39:39;3.49;93.13
47861;HTU21D;33620;52.340;5.984;2022-12-07T07:42:05;3.53;93.42
47861;HTU21D;33620;52.340;5.984;2022-12-07T07:44:30;3.57;93.71
47861;HTU21D;33620;52.340;5.984;2022-12-07T07:46:56;3.60;93.77
47861;HTU21D;33620;52.340;5.984;2022-12-07T07:49:21;3.62;93.83
47861;HTU21D;33620;52.340;5.984;2022-12-07T07:51:47;3.64;93.85
47861;HTU21D;33620;52.340;5.984;2022-12-07T07:54:12;3.67;93.93
47861;HTU21D;33620;52.340;5.984;2022-12-07T07:56:37;3.67;93.86
47861;HTU21D;33620;52.340;5.984;2022-12-07T07:59:03;3.67;93.81
47861;HTU21D;33620;52.340;5.984;2022-12-07T08:01:28;3.68;93.85
47861;HTU21D;33620;52.340;5.984;2022-12-07T08:03:53;3.63;93.82
47861;HTU21D;33620;52.340;5.984;2022-12-07T08:06:19;3.65;93.86
47861;HTU21D;33620;52.340;5.984;2022-12-07T08:08:44;3.63;93.82
47861;HTU21D;33620;52.340;5.984;2022-12-07T08:11:10;3.67;93.96
47861;HTU21D;33620;52.340;5.984;2022-12-07T08:13:36;3.63;93.74
47861;HTU21D;33620;52.340;5.984;2022-12-07T08:16:06;3.62;93.78
47861;HTU21D;33620;52.340;5.984;2022-12-07T08:18:38;3.60;93.78
47861;HTU21D;33620;52.340;5.984;2022-12-07T08:21:03;3.62;93.96
47861;HTU21D;33620;52.340;5.984;2022-12-07T08:23:30;3.61;94.00
47861;HTU21D;33620;52.340;5.984;2022-12-07T08:25:59;3.61;94.14
47861;HTU21D;33620;52.340;5.984;2022-12-07T08:28:25;3.62;94.28
47861;HTU21D;33620;52.340;5.984;2022-12-07T08:30:50;3.63;94.39
47861;HTU21D;33620;52.340;5.984;2022-12-07T08:33:15;3.62;94.33
47861;HTU21D;33620;52.340;5.984;2022-12-07T08:35:41;3.64;94.47
47861;HTU21D;33620;52.340;5.984;2022-12-07T08:38:06;3.65;94.44
47861;HTU21D;33620;52.340;5.984;2022-12-07T08:40:32;3.65;94.42
47861;HTU21D;33620;52.340;5.984;2022-12-07T08:42:57;3.64;94.34
47861;HTU21D;33620;52.340;5.984;2022-12-07T08:45:22;3.65;94.46
47861;HTU21D;33620;52.340;5.984;2022-12-07T08:48:00;3.67;94.39
47861;HTU21D;33620;52.340;5.984;2022-12-07T08:50:27;3.67;94.19
47861;HTU21D;33620;52.340;5.984;2022-12-07T08:52:54;3.64;94.18
47861;HTU21D;33620;52.340;5.984;2022-12-07T08:55:20;3.67;94.19
47861;HTU21D;33620;52.340;5.984;2022-12-07T08:57:46;3.69;94.14
47861;HTU21D;33620;52.340;5.984;2022-12-07T09:00:12;3.69;94.34
47861;HTU21D;33620;52.340;5.984;2022-12-07T09:02:38;3.72;94.63
47861;HTU21D;33620;52.340;5.984;2022-12-07T09:05:04;3.77;94.81
47861;HTU21D;33620;52.340;5.984;2022-12-07T09:07:31;3.80;94.86
47861;HTU21D;33620;52.340;5.984;2022-12-07T09:09:57;3.83;94.82
47861;HTU21D;33620;52.340;5.984;2022-12-07T09:12:22;3.84;94.75
47861;HTU21D;33620;52.340;5.984;2022-12-07T09:14:47;3.86;94.79
47861;HTU21D;33620;52.340;5.984;2022-12-07T09:17:13;3.87;94.74
47861;HTU21D;33620;52.340;5.984;2022-12-07T09:19:38;3.92;94.75
47861;HTU21D;33620;52.340;5.984;2022-12-07T09:22:05;3.92;94.46
47861;HTU21D;33620;52.340;5.984;2022-12-07T09:24:31;3.95;94.46
47861;HTU21D;33620;52.340;5.984;2022-12-07T09:26:57;3.95;94.49
47861;HTU21D;33620;52.340;5.984;2022-12-07T09:29:23;4.01;94.25
47861;HTU21D;33620;52.340;5.984;2022-12-07T09:31:48;4.05;94.21
47861;HTU21D;33620;52.340;5.984;2022-12-07T09:34:14;4.09;94.04
47861;HTU21D;33620;52.340;5.984;2022-12-07T09:36:39;4.14;93.97
47861;HTU21D;33620;52.340;5.984;2022-12-07T09:39:05;4.21;94.11
47861;HTU21D;33620;52.340;5.984;2022-12-07T09:41:31;4.31;94.28
47861;HTU21D;33620;52.340;5.984;2022-12-07T09:44:12;4.36;94.13
47861;HTU21D;33620;52.340;5.984;2022-12-07T09:46:40;4.37;94.01
47861;HTU21D;33620;52.340;5.984;2022-12-07T09:49:12;4.42;93.26
47861;HTU21D;33620;52.340;5.984;2022-12-07T09:51:38;4.51;93.58
47861;HTU21D;33620;52.340;5.984;2022-12-07T09:54:03;4.53;93.16
47861;HTU21D;33620;52.340;5.984;2022-12-07T09:56:29;4.58;92.85
47861;HTU21D;33620;52.340;5.984;2022-12-07T09:59:00;4.64;92.82
47861;HTU21D;33620;52.340;5.984;2022-12-07T10:01:29;4.67;92.79
47861;HTU21D;33620;52.340;5.984;2022-12-07T10:06:27;4.69;92.40
47861;HTU21D;33620;52.340;5.984;2022-12-07T10:08:53;4.72;92.23
47861;HTU21D;33620;52.340;5.984;2022-12-07T10:11:18;4.74;92.27
47861;HTU21D;33620;52.340;5.984;2022-12-07T10:13:49;4.79;92.45
47861;HTU21D;33620;52.340;5.984;2022-12-07T10:18:49;4.91;92.63
47861;HTU21D;33620;52.340;5.984;2022-12-07T10:21:17;4.98;92.85
47861;HTU21D;33620;52.340;5.984;2022-12-07T10:26:50;5.10;92.74
47861;HTU21D;33620;52.340;5.984;2022-12-07T10:31:45;5.15;92.32
47861;HTU21D;33620;52.340;5.984;2022-12-07T10:34:25;5.10;91.79
47861;HTU21D;33620;52.340;5.984;2022-12-07T10:36:52;5.05;91.37
47861;HTU21D;33620;52.340;5.984;2022-12-07T10:39:22;5.03;91.83
47861;HTU21D;33620;52.340;5.984;2022-12-07T10:41:57;5.01;92.22
47861;HTU21D;33620;52.340;5.984;2022-12-07T10:44:28;5.00;92.43
47861;HTU21D;33620;52.340;5.984;2022-12-07T10:55:39;4.96;93.03
47861;HTU21D;33620;52.340;5.984;2022-12-07T11:04:00;5.04;93.28
47861;HTU21D;33620;52.340;5.984;2022-12-07T11:06:52;5.10;93.48
47861;HTU21D;33620;52.340;5.984;2022-12-07T11:11:58;5.20;93.44
47861;HTU21D;33620;52.340;5.984;2022-12-07T11:14:30;5.22;93.22
47861;HTU21D;33620;52.340;5.984;2022-12-07T11:17:02;5.24;92.97
47861;HTU21D;33620;52.340;5.984;2022-12-07T11:22:20;5.31;92.18
47861;HTU21D;33620;52.340;5.984;2022-12-07T11:27:43;5.36;91.60
47861;HTU21D;33620;52.340;5.984;2022-12-07T11:30:13;5.40;91.39
47861;HTU21D;33620;52.340;5.984;2022-12-07T11:32:54;5.46;91.42
47861;HTU21D;33620;52.340;5.984;2022-12-07T11:37:56;5.55;90.58
47861;HTU21D;33620;52.340;5.984;2022-12-07T11:40:36;5.61;89.91
47861;HTU21D;33620;52.340;5.984;2022-12-07T11:43:09;5.69;89.47
47861;HTU21D;33620;52.340;5.984;2022-12-07T11:45:39;5.77;88.94
47861;HTU21D;33620;52.340;5.984;2022-12-07T11:48:16;5.80;88.24
47861;HTU21D;33620;52.340;5.984;2022-12-07T11:50:52;5.86;88.00
47861;HTU21D;33620;52.340;5.984;2022-12-07T11:53:44;5.90;87.65
47861;HTU21D;33620;52.340;5.984;2022-12-07T11:56:16;5.94;87.56
47861;HTU21D;33620;52.340;5.984;2022-12-07T12:06:35;6.05;86.38
47861;HTU21D;33620;52.340;5.984;2022-12-07T12:20:22;5.94;84.64
47861;HTU21D;33620;52.340;5.984;2022-12-07T12:25:40;5.98;85.25
47861;HTU21D;33620;52.340;5.984;2022-12-07T12:28:40;6.00;85.21
47861;HTU21D;33620;52.340;5.984;2022-12-07T12:33:45;6.01;84.66
47861;HTU21D;33620;52.340;5.984;2022-12-07T12:46:57;6.17;84.89
47861;HTU21D;33620;52.340;5.984;2022-12-07T12:52:45;6.13;83.28
47861;HTU21D;33620;52.340;5.984;2022-12-07T12:55:13;6.16;83.60
47861;HTU21D;33620;52.340;5.984;2022-12-07T12:57:39;6.17;83.10
47861;HTU21D;33620;52.340;5.984;2022-12-07T13:00:18;6.22;83.16
47861;HTU21D;33620;52.340;5.984;2022-12-07T13:03:24;6.28;83.75
47861;HTU21D;33620;52.340;5.984;2022-12-07T13:08:42;6.39;83.52
47861;HTU21D;33620;52.340;5.984;2022-12-07T13:11:19;6.39;82.60
47861;HTU21D;33620;52.340;5.984;2022-12-07T13:13:45;6.39;82.20
47861;HTU21D;33620;52.340;5.984;2022-12-07T13:18:37;6.42;82.56
47861;HTU21D;33620;52.340;5.984;2022-12-07T13:23:57;6.48;82.09
47861;HTU21D;33620;52.340;5.984;2022-12-07T13:29:16;6.46;81.59
47861;HTU21D;33620;52.340;5.984;2022-12-07T13:31:56;6.50;81.68
47861;HTU21D;33620;52.340;5.984;2022-12-07T13:34:38;6.53;81.55
47861;HTU21D;33620;52.340;5.984;2022-12-07T13:37:30;6.59;81.71
47861;HTU21D;33620;52.340;5.984;2022-12-07T13:40:00;6.65;81.43
47861;HTU21D;33620;52.340;5.984;2022-12-07T13:42:34;6.68;81.14
47861;HTU21D;33620;52.340;5.984;2022-12-07T13:45:16;6.72;81.25
47861;HTU21D;33620;52.340;5.984;2022-12-07T13:47:50;6.69;80.99
47861;HTU21D;33620;52.340;5.984;2022-12-07T13:52:55;6.66;80.94
47861;HTU21D;33620;52.340;5.984;2022-12-07T13:55:21;6.65;81.16
47861;HTU21D;33620;52.340;5.984;2022-12-07T13:57:50;6.61;81.37
47861;HTU21D;33620;52.340;5.984;2022-12-07T14:00:19;6.55;81.16
47861;HTU21D;33620;52.340;5.984;2022-12-07T14:02:57;6.52;80.53
47861;HTU21D;33620;52.340;5.984;2022-12-07T14:05:26;6.51;80.93
47861;HTU21D;33620;52.340;5.984;2022-12-07T14:10:32;6.44;80.81
47861;HTU21D;33620;52.340;5.984;2022-12-07T14:12:59;6.44;81.34
47861;HTU21D;33620;52.340;5.984;2022-12-07T14:15:30;6.41;80.96
47861;HTU21D;33620;52.340;5.984;2022-12-07T14:17:56;6.45;81.75
47861;HTU21D;33620;52.340;5.984;2022-12-07T14:20:33;6.38;80.87
47861;HTU21D;33620;52.340;5.984;2022-12-07T14:22:59;6.37;81.07
47861;HTU21D;33620;52.340;5.984;2022-12-07T14:25:45;6.36;80.78
47861;HTU21D;33620;52.340;5.984;2022-12-07T14:28:28;6.30;80.30
47861;HTU21D;33620;52.340;5.984;2022-12-07T14:30:54;6.34;80.55
47861;HTU21D;33620;52.340;5.984;2022-12-07T14:33:20;6.29;80.95
47861;HTU21D;33620;52.340;5.984;2022-12-07T14:35:47;6.23;81.27
47861;HTU21D;33620;52.340;5.984;2022-12-07T14:38:12;6.26;81.71
47861;HTU21D;33620;52.340;5.984;2022-12-07T14:40:38;6.22;81.79
47861;HTU21D;33620;52.340;5.984;2022-12-07T14:43:12;6.14;80.06
47861;HTU21D;33620;52.340;5.984;2022-12-07T14:45:38;6.08;80.22
47861;HTU21D;33620;52.340;5.984;2022-12-07T14:48:05;6.01;79.96
47861;HTU21D;33620;52.340;5.984;2022-12-07T14:50:38;5.96;79.67
47861;HTU21D;33620;52.340;5.984;2022-12-07T14:53:14;5.94;80.05
47861;HTU21D;33620;52.340;5.984;2022-12-07T14:55:40;5.89;80.17
47861;HTU21D;33620;52.340;5.984;2022-12-07T14:58:05;5.84;80.18
47861;HTU21D;33620;52.340;5.984;2022-12-07T15:00:31;5.80;80.53
47861;HTU21D;33620;52.340;5.984;2022-12-07T15:02:57;5.75;80.34
47861;HTU21D;33620;52.340;5.984;2022-12-07T15:05:22;5.72;80.49
47861;HTU21D;33620;52.340;5.984;2022-12-07T15:07:49;5.71;80.88
47861;HTU21D;33620;52.340;5.984;2022-12-07T15:10:18;5.70;81.10
47861;HTU21D;33620;52.340;5.984;2022-12-07T15:12:44;5.69;81.36
47861;HTU21D;33620;52.340;5.984;2022-12-07T15:15:09;5.65;81.51
47861;HTU21D;33620;52.340;5.984;2022-12-07T15:17:35;5.63;81.51
47861;HTU21D;33620;52.340;5.984;2022-12-07T15:20:00;5.60;81.84
47861;HTU21D;33620;52.340;5.984;2022-12-07T15:22:26;5.53;82.20
47861;HTU21D;33620;52.340;5.984;2022-12-07T15:24:51;5.52;82.44
47861;HTU21D;33620;52.340;5.984;2022-12-07T15:27:16;5.47;82.81
47861;HTU21D;33620;52.340;5.984;2022-12-07T15:29:42;5.39;83.32
47861;HTU21D;33620;52.340;5.984;2022-12-07T15:32:07;5.36;83.81
47861;HTU21D;33620;52.340;5.984;2022-12-07T15:34:33;5.34;84.10
47861;HTU21D;33620;52.340;5.984;2022-12-07T15:36:58;5.35;84.26
47861;HTU21D;33620;52.340;5.984;2022-12-07T15:39:23;5.32;84.43
47861;HTU21D;33620;52.340;5.984;2022-12-07T15:41:49;5.25;84.83
47861;HTU21D;33620;52.340;5.984;2022-12-07T15:44:14;5.25;85.11
47861;HTU21D;33620;52.340;5.984;2022-12-07T15:46:59;5.26;85.33
47861;HTU21D;33620;52.340;5.984;2022-12-07T15:49:25;5.23;85.50
47861;HTU21D;33620;52.340;5.984;2022-12-07T15:51:51;5.22;85.71
47861;HTU21D;33620;52.340;5.984;2022-12-07T15:54:22;5.21;85.75
47861;HTU21D;33620;52.340;5.984;2022-12-07T15:56:48;5.19;85.80
47861;HTU21D;33620;52.340;5.984;2022-12-07T15:59:14;5.15;86.03
47861;HTU21D;33620;52.340;5.984;2022-12-07T16:01:40;5.15;86.00
47861;HTU21D;33620;52.340;5.984;2022-12-07T16:04:05;5.15;86.14
47861;HTU21D;33620;52.340;5.984;2022-12-07T16:06:30;5.11;86.00
47861;HTU21D;33620;52.340;5.984;2022-12-07T16:08:56;5.09;86.21
47861;HTU21D;33620;52.340;5.984;2022-12-07T16:11:21;5.07;86.19
47861;HTU21D;33620;52.340;5.984;2022-12-07T16:13:47;5.05;86.42
47861;HTU21D;33620;52.340;5.984;2022-12-07T16:16:15;5.06;86.54
47861;HTU21D;33620;52.340;5.984;2022-12-07T16:18:42;5.05;86.45
47861;HTU21D;33620;52.340;5.984;2022-12-07T16:21:08;5.02;86.64
47861;HTU21D;33620;52.340;5.984;2022-12-07T16:23:33;5.03;86.79
47861;HTU21D;33620;52.340;5.984;2022-12-07T16:26:06;5.00;86.88
47861;HTU21D;33620;52.340;5.984;2022-12-07T16:28:32;5.00;86.99
47861;HTU21D;33620;52.340;5.984;2022-12-07T16:31:06;4.95;87.23
47861;HTU21D;33620;52.340;5.984;2022-12-07T16:33:34;4.96;87.54
47861;HTU21D;33620;52.340;5.984;2022-12-07T16:36:00;4.98;87.54
47861;HTU21D;33620;52.340;5.984;2022-12-07T16:38:26;4.97;87.48
47861;HTU21D;33620;52.340;5.984;2022-12-07T16:40:52;4.94;87.57
47861;HTU21D;33620;52.340;5.984;2022-12-07T16:43:18;4.95;87.62
47861;HTU21D;33620;52.340;5.984;2022-12-07T16:45:45;4.91;87.71
47861;HTU21D;33620;52.340;5.984;2022-12-07T16:48:10;4.92;87.86
47861;HTU21D;33620;52.340;5.984;2022-12-07T16:50:39;4.92;87.86
47861;HTU21D;33620;52.340;5.984;2022-12-07T16:53:05;4.92;87.97
47861;HTU21D;33620;52.340;5.984;2022-12-07T16:55:30;4.91;88.06
47861;HTU21D;33620;52.340;5.984;2022-12-07T16:57:56;4.91;87.93
47861;HTU21D;33620;52.340;5.984;2022-12-07T17:00:21;4.90;88.07
47861;HTU21D;33620;52.340;5.984;2022-12-07T17:02:47;4.90;88.36
47861;HTU21D;33620;52.340;5.984;2022-12-07T17:05:12;4.92;88.38
47861;HTU21D;33620;52.340;5.984;2022-12-07T17:07:37;4.89;88.35
47861;HTU21D;33620;52.340;5.984;2022-12-07T17:10:04;4.90;88.64
47861;HTU21D;33620;52.340;5.984;2022-12-07T17:12:29;4.92;88.57
47861;HTU21D;33620;52.340;5.984;2022-12-07T17:14:54;4.93;88.59
47861;HTU21D;33620;52.340;5.984;2022-12-07T17:17:38;4.97;88.54
47861;HTU21D;33620;52.340;5.984;2022-12-07T17:20:04;4.96;88.44
47861;HTU21D;33620;52.340;5.984;2022-12-07T17:22:30;4.97;88.57
47861;HTU21D;33620;52.340;5.984;2022-12-07T17:24:55;4.97;88.51
47861;HTU21D;33620;52.340;5.984;2022-12-07T17:27:20;4.95;88.57
47861;HTU21D;33620;52.340;5.984;2022-12-07T17:29:46;4.94;88.50
47861;HTU21D;33620;52.340;5.984;2022-12-07T17:32:11;4.93;88.46
47861;HTU21D;33620;52.340;5.984;2022-12-07T17:34:36;4.92;88.63
47861;HTU21D;33620;52.340;5.984;2022-12-07T17:37:02;4.92;88.59